sensor_id;sensor_type;location;lat;lon;timestamp;P1;durP1;ratioP1;P2;durP2;ratioP2
25327;SDS011;13279;51.300;12.394;2023-02-28T00:00:25;4.83;;;2.67;;
25327;SDS011;13279;51.300;12.394;2023-02-28T00:02:54;4.20;;;2.90;;
25327;SDS011;13279;51.300;12.394;2023-02-28T00:05:22;8.17;;;2.57;;
25327;SDS011;13279;51.300;12.394;2023-02-28T00:07:52;3.33;;;2.13;;
25327;SDS011;13279;51.300;12.394;2023-02-28T00:10:21;3.80;;;2.40;;
25327;SDS011;13279;51.300;12.394;2023-02-28T00:12:53;6.27;;;2.50;;
25327;SDS011;13279;51.300;12.394;2023-02-28T00:15:22;3.17;;;2.00;;
25327;SDS011;13279;51.300;12.394;2023-02-28T00:17:50;3.93;;;2.30;;
25327;SDS011;13279;51.300;12.394;2023-02-28T00:20:20;3.40;;;2.57;;
25327;SDS011;13279;51.300;12.394;2023-02-28T00:22:48;2.43;;;2.23;;
25327;SDS011;13279;51.300;12.394;2023-02-28T00:25:18;3.37;;;2.33;;
25327;SDS011;13279;51.300;12.394;2023-02-28T00:27:47;3.40;;;2.10;;
25327;SDS011;13279;51.300;12.394;2023-02-28T00:30:16;5.50;;;2.43;;
25327;SDS011;13279;51.300;12.394;2023-02-28T00:32:45;4.50;;;2.50;;
25327;SDS011;13279;51.300;12.394;2023-02-28T00:35:12;3.00;;;2.33;;
25327;SDS011;13279;51.300;12.394;2023-02-28T00:37:42;4.10;;;2.50;;
25327;SDS011;13279;51.300;12.394;2023-02-28T00:40:10;1.97;;;1.80;;
25327;SDS011;13279;51.300;12.394;2023-02-28T00:42:38;3.93;;;2.63;;
25327;SDS011;13279;51.300;12.394;2023-02-28T00:45:07;4.77;;;2.60;;
25327;SDS011;13279;51.300;12.394;2023-02-28T00:47:36;4.07;;;2.20;;
25327;SDS011;13279;51.300;12.394;2023-02-28T00:50:05;3.73;;;2.23;;
25327;SDS011;13279;51.300;12.394;2023-02-28T00:52:35;5.73;;;2.70;;
25327;SDS011;13279;51.300;12.394;2023-02-28T00:55:05;3.13;;;2.23;;
25327;SDS011;13279;51.300;12.394;2023-02-28T00:57:33;4.00;;;2.43;;
25327;SDS011;13279;51.300;12.394;2023-02-28T01:00:00;5.33;;;2.57;;
25327;SDS011;13279;51.300;12.394;2023-02-28T01:02:28;3.97;;;2.60;;
25327;SDS011;13279;51.300;12.394;2023-02-28T01:04:56;5.50;;;2.47;;
25327;SDS011;13279;51.300;12.394;2023-02-28T01:07:23;6.40;;;2.80;;
25327;SDS011;13279;51.300;12.394;2023-02-28T01:09:52;9.93;;;2.60;;
25327;SDS011;13279;51.300;12.394;2023-02-28T01:12:21;5.03;;;2.50;;
25327;SDS011;13279;51.300;12.394;2023-02-28T01:14:48;3.43;;;2.27;;
25327;SDS011;13279;51.300;12.394;2023-02-28T01:17:16;4.63;;;2.77;;
25327;SDS011;13279;51.300;12.394;2023-02-28T01:19:43;3.67;;;2.33;;
25327;SDS011;13279;51.300;12.394;2023-02-28T01:22:11;9.10;;;3.10;;
25327;SDS011;13279;51.300;12.394;2023-02-28T01:24:41;3.27;;;2.47;;
25327;SDS011;13279;51.300;12.394;2023-02-28T01:27:11;6.23;;;2.47;;
25327;SDS011;13279;51.300;12.394;2023-02-28T01:29:40;3.97;;;2.40;;
25327;SDS011;13279;51.300;12.394;2023-02-28T01:32:08;3.47;;;2.60;;
25327;SDS011;13279;51.300;12.394;2023-02-28T01:34:36;5.37;;;2.70;;
25327;SDS011;13279;51.300;12.394;2023-02-28T01:37:03;3.50;;;2.30;;
25327;SDS011;13279;51.300;12.394;2023-02-28T01:39:31;3.70;;;2.47;;
25327;SDS011;13279;51.300;12.394;2023-02-28T01:41:58;4.17;;;2.90;;
25327;SDS011;13279;51.300;12.394;2023-02-28T01:47:29;3.63;;;2.53;;
25327;SDS011;13279;51.300;12.394;2023-02-28T01:49:58;5.00;;;3.03;;
25327;SDS011;13279;51.300;12.394;2023-02-28T01:52:29;5.53;;;2.70;;
25327;SDS011;13279;51.300;12.394;2023-02-28T01:54:58;6.77;;;2.80;;
25327;SDS011;13279;51.300;12.394;2023-02-28T01:57:29;5.90;;;2.77;;
25327;SDS011;13279;51.300;12.394;2023-02-28T02:00:05;4.37;;;2.77;;
25327;SDS011;13279;51.300;12.394;2023-02-28T02:02:47;5.00;;;2.73;;
25327;SDS011;13279;51.300;12.394;2023-02-28T02:05:18;5.03;;;2.67;;
25327;SDS011;13279;51.300;12.394;2023-02-28T02:07:47;5.70;;;2.70;;
25327;SDS011;13279;51.300;12.394;2023-02-28T02:10:18;4.87;;;2.73;;
25327;SDS011;13279;51.300;12.394;2023-02-28T02:12:53;5.93;;;2.77;;
25327;SDS011;13279;51.300;12.394;2023-02-28T02:15:40;4.73;;;2.73;;
25327;SDS011;13279;51.300;12.394;2023-02-28T02:18:14;6.60;;;3.00;;
25327;SDS011;13279;51.300;12.394;2023-02-28T02:24:23;5.17;;;2.70;;
25327;SDS011;13279;51.300;12.394;2023-02-28T02:27:32;4.10;;;2.87;;
25327;SDS011;13279;51.300;12.394;2023-02-28T02:30:33;5.67;;;3.70;;
25327;SDS011;13279;51.300;12.394;2023-02-28T02:33:34;4.50;;;2.50;;
25327;SDS011;13279;51.300;12.394;2023-02-28T02:36:22;3.47;;;2.47;;
25327;SDS011;13279;51.300;12.394;2023-02-28T02:38:53;3.70;;;2.70;;
25327;SDS011;13279;51.300;12.394;2023-02-28T02:41:28;3.00;;;2.70;;
25327;SDS011;13279;51.300;12.394;2023-02-28T02:44:05;8.47;;;2.90;;
25327;SDS011;13279;51.300;12.394;2023-02-28T02:46:39;4.17;;;2.40;;
25327;SDS011;13279;51.300;12.394;2023-02-28T02:49:12;8.83;;;3.07;;
25327;SDS011;13279;51.300;12.394;2023-02-28T02:51:44;13.47;;;3.20;;
25327;SDS011;13279;51.300;12.394;2023-02-28T02:54:15;6.17;;;3.00;;
25327;SDS011;13279;51.300;12.394;2023-02-28T02:56:48;8.23;;;3.03;;
25327;SDS011;13279;51.300;12.394;2023-02-28T02:59:18;4.67;;;2.83;;
25327;SDS011;13279;51.300;12.394;2023-02-28T03:01:50;6.27;;;3.17;;
25327;SDS011;13279;51.300;12.394;2023-02-28T03:04:21;4.67;;;2.73;;
25327;SDS011;13279;51.300;12.394;2023-02-28T03:06:51;6.63;;;3.27;;
25327;SDS011;13279;51.300;12.394;2023-02-28T03:09:20;3.57;;;2.67;;
25327;SDS011;13279;51.300;12.394;2023-02-28T03:11:48;3.40;;;2.70;;
25327;SDS011;13279;51.300;12.394;2023-02-28T03:14:29;4.17;;;3.03;;
25327;SDS011;13279;51.300;12.394;2023-02-28T03:17:24;3.60;;;2.63;;
25327;SDS011;13279;51.300;12.394;2023-02-28T03:20:25;5.40;;;2.83;;
25327;SDS011;13279;51.300;12.394;2023-02-28T03:23:05;5.23;;;2.77;;
25327;SDS011;13279;51.300;12.394;2023-02-28T03:25:42;4.77;;;2.87;;
25327;SDS011;13279;51.300;12.394;2023-02-28T03:28:19;8.13;;;3.10;;
25327;SDS011;13279;51.300;12.394;2023-02-28T03:30:59;5.90;;;2.90;;
25327;SDS011;13279;51.300;12.394;2023-02-28T03:33:31;4.53;;;2.50;;
25327;SDS011;13279;51.300;12.394;2023-02-28T03:36:03;5.47;;;2.77;;
25327;SDS011;13279;51.300;12.394;2023-02-28T03:38:36;3.43;;;2.50;;
25327;SDS011;13279;51.300;12.394;2023-02-28T03:41:10;5.30;;;2.83;;
25327;SDS011;13279;51.300;12.394;2023-02-28T03:43:43;6.07;;;2.83;;
25327;SDS011;13279;51.300;12.394;2023-02-28T03:46:16;6.20;;;2.57;;
25327;SDS011;13279;51.300;12.394;2023-02-28T03:48:49;4.57;;;2.70;;
25327;SDS011;13279;51.300;12.394;2023-02-28T03:51:22;5.90;;;2.67;;
25327;SDS011;13279;51.300;12.394;2023-02-28T03:53:54;4.20;;;2.53;;
25327;SDS011;13279;51.300;12.394;2023-02-28T03:56:27;7.17;;;2.57;;
25327;SDS011;13279;51.300;12.394;2023-02-28T03:59:00;5.10;;;2.37;;
25327;SDS011;13279;51.300;12.394;2023-02-28T04:01:33;5.30;;;3.20;;
25327;SDS011;13279;51.300;12.394;2023-02-28T04:04:04;4.10;;;2.57;;
25327;SDS011;13279;51.300;12.394;2023-02-28T04:06:32;6.73;;;3.00;;
25327;SDS011;13279;51.300;12.394;2023-02-28T04:09:02;7.50;;;2.70;;
25327;SDS011;13279;51.300;12.394;2023-02-28T04:11:32;6.10;;;2.97;;
25327;SDS011;13279;51.300;12.394;2023-02-28T04:14:02;5.20;;;3.20;;
25327;SDS011;13279;51.300;12.394;2023-02-28T04:16:30;7.40;;;3.43;;
25327;SDS011;13279;51.300;12.394;2023-02-28T04:18:58;7.07;;;3.30;;
25327;SDS011;13279;51.300;12.394;2023-02-28T04:21:29;5.13;;;2.93;;
25327;SDS011;13279;51.300;12.394;2023-02-28T04:23:58;7.70;;;2.97;;
25327;SDS011;13279;51.300;12.394;2023-02-28T04:26:29;8.37;;;2.80;;
25327;SDS011;13279;51.300;12.394;2023-02-28T04:28:56;6.80;;;2.53;;
25327;SDS011;13279;51.300;12.394;2023-02-28T04:31:24;8.17;;;3.13;;
25327;SDS011;13279;51.300;12.394;2023-02-28T04:33:51;6.17;;;2.73;;
25327;SDS011;13279;51.300;12.394;2023-02-28T04:36:19;6.30;;;2.60;;
25327;SDS011;13279;51.300;12.394;2023-02-28T04:38:48;6.63;;;3.10;;
25327;SDS011;13279;51.300;12.394;2023-02-28T04:41:16;6.07;;;3.47;;
25327;SDS011;13279;51.300;12.394;2023-02-28T04:43:44;7.67;;;4.57;;
25327;SDS011;13279;51.300;12.394;2023-02-28T04:46:12;6.67;;;3.03;;
25327;SDS011;13279;51.300;12.394;2023-02-28T04:48:39;3.93;;;2.57;;
25327;SDS011;13279;51.300;12.394;2023-02-28T04:51:08;4.67;;;2.97;;
25327;SDS011;13279;51.300;12.394;2023-02-28T04:53:38;6.07;;;3.10;;
25327;SDS011;13279;51.300;12.394;2023-02-28T04:56:07;7.10;;;3.10;;
25327;SDS011;13279;51.300;12.394;2023-02-28T04:58:37;6.23;;;3.23;;
25327;SDS011;13279;51.300;12.394;2023-02-28T05:01:07;4.67;;;2.93;;
25327;SDS011;13279;51.300;12.394;2023-02-28T05:03:42;7.63;;;3.17;;
25327;SDS011;13279;51.300;12.394;2023-02-28T05:06:11;4.90;;;2.63;;
25327;SDS011;13279;51.300;12.394;2023-02-28T05:08:40;4.23;;;2.60;;
25327;SDS011;13279;51.300;12.394;2023-02-28T05:11:11;5.90;;;3.50;;
25327;SDS011;13279;51.300;12.394;2023-02-28T05:13:42;7.03;;;3.13;;
25327;SDS011;13279;51.300;12.394;2023-02-28T05:16:11;6.37;;;3.50;;
25327;SDS011;13279;51.300;12.394;2023-02-28T05:18:38;6.30;;;3.50;;
25327;SDS011;13279;51.300;12.394;2023-02-28T05:21:05;5.00;;;3.10;;
25327;SDS011;13279;51.300;12.394;2023-02-28T05:23:44;5.13;;;3.17;;
25327;SDS011;13279;51.300;12.394;2023-02-28T05:26:11;5.37;;;2.90;;
25327;SDS011;13279;51.300;12.394;2023-02-28T05:28:39;4.73;;;3.10;;
25327;SDS011;13279;51.300;12.394;2023-02-28T05:31:07;4.93;;;3.03;;
25327;SDS011;13279;51.300;12.394;2023-02-28T05:33:36;4.83;;;2.93;;
25327;SDS011;13279;51.300;12.394;2023-02-28T05:36:05;6.77;;;2.87;;
25327;SDS011;13279;51.300;12.394;2023-02-28T05:38:33;4.77;;;3.00;;
25327;SDS011;13279;51.300;12.394;2023-02-28T05:41:04;5.67;;;3.37;;
25327;SDS011;13279;51.300;12.394;2023-02-28T05:43:32;6.87;;;3.00;;
25327;SDS011;13279;51.300;12.394;2023-02-28T05:46:01;6.80;;;2.83;;
25327;SDS011;13279;51.300;12.394;2023-02-28T05:48:30;6.60;;;2.93;;
25327;SDS011;13279;51.300;12.394;2023-02-28T05:50:59;5.93;;;3.10;;
25327;SDS011;13279;51.300;12.394;2023-02-28T05:53:27;5.47;;;3.20;;
25327;SDS011;13279;51.300;12.394;2023-02-28T05:55:54;4.70;;;3.37;;
25327;SDS011;13279;51.300;12.394;2023-02-28T05:58:22;5.13;;;3.37;;
25327;SDS011;13279;51.300;12.394;2023-02-28T06:00:50;5.53;;;3.30;;
25327;SDS011;13279;51.300;12.394;2023-02-28T06:03:18;5.27;;;3.13;;
25327;SDS011;13279;51.300;12.394;2023-02-28T06:05:45;7.37;;;3.27;;
25327;SDS011;13279;51.300;12.394;2023-02-28T06:08:14;5.77;;;3.37;;
25327;SDS011;13279;51.300;12.394;2023-02-28T06:10:41;5.00;;;3.30;;
25327;SDS011;13279;51.300;12.394;2023-02-28T06:13:09;4.73;;;2.93;;
25327;SDS011;13279;51.300;12.394;2023-02-28T06:15:38;4.70;;;3.27;;
25327;SDS011;13279;51.300;12.394;2023-02-28T06:18:05;6.90;;;3.67;;
25327;SDS011;13279;51.300;12.394;2023-02-28T06:20:33;10.13;;;3.57;;
25327;SDS011;13279;51.300;12.394;2023-02-28T06:23:01;4.83;;;3.70;;
25327;SDS011;13279;51.300;12.394;2023-02-28T06:25:30;7.30;;;4.27;;
25327;SDS011;13279;51.300;12.394;2023-02-28T06:27:58;6.63;;;3.87;;
25327;SDS011;13279;51.300;12.394;2023-02-28T06:30:25;4.73;;;3.30;;
25327;SDS011;13279;51.300;12.394;2023-02-28T06:32:56;4.37;;;3.30;;
25327;SDS011;13279;51.300;12.394;2023-02-28T06:35:24;8.73;;;3.40;;
25327;SDS011;13279;51.300;12.394;2023-02-28T06:37:52;5.80;;;3.10;;
25327;SDS011;13279;51.300;12.394;2023-02-28T06:40:19;5.33;;;3.20;;
25327;SDS011;13279;51.300;12.394;2023-02-28T06:42:48;6.40;;;4.03;;
25327;SDS011;13279;51.300;12.394;2023-02-28T06:45:15;9.10;;;3.43;;
25327;SDS011;13279;51.300;12.394;2023-02-28T06:47:43;14.07;;;4.00;;
25327;SDS011;13279;51.300;12.394;2023-02-28T06:50:11;7.13;;;3.03;;
25327;SDS011;13279;51.300;12.394;2023-02-28T06:52:39;9.80;;;3.50;;
25327;SDS011;13279;51.300;12.394;2023-02-28T06:55:06;7.27;;;3.70;;
25327;SDS011;13279;51.300;12.394;2023-02-28T06:57:35;6.80;;;4.10;;
25327;SDS011;13279;51.300;12.394;2023-02-28T07:00:05;9.03;;;3.80;;
25327;SDS011;13279;51.300;12.394;2023-02-28T07:02:34;8.50;;;3.90;;
25327;SDS011;13279;51.300;12.394;2023-02-28T07:05:01;7.33;;;3.67;;
25327;SDS011;13279;51.300;12.394;2023-02-28T07:07:29;4.67;;;3.37;;
25327;SDS011;13279;51.300;12.394;2023-02-28T07:09:57;12.50;;;4.73;;
25327;SDS011;13279;51.300;12.394;2023-02-28T07:12:25;12.47;;;3.90;;
25327;SDS011;13279;51.300;12.394;2023-02-28T07:14:52;4.17;;;3.67;;
25327;SDS011;13279;51.300;12.394;2023-02-28T07:17:21;5.73;;;3.47;;
25327;SDS011;13279;51.300;12.394;2023-02-28T07:19:49;10.57;;;3.63;;
25327;SDS011;13279;51.300;12.394;2023-02-28T07:22:16;6.30;;;4.13;;
25327;SDS011;13279;51.300;12.394;2023-02-28T07:24:44;6.10;;;3.87;;
25327;SDS011;13279;51.300;12.394;2023-02-28T07:27:11;4.10;;;3.03;;
25327;SDS011;13279;51.300;12.394;2023-02-28T07:29:51;6.50;;;3.97;;
25327;SDS011;13279;51.300;12.394;2023-02-28T07:32:18;5.83;;;3.47;;
25327;SDS011;13279;51.300;12.394;2023-02-28T07:34:47;9.90;;;4.27;;
25327;SDS011;13279;51.300;12.394;2023-02-28T07:37:14;6.47;;;3.77;;
25327;SDS011;13279;51.300;12.394;2023-02-28T07:39:42;9.67;;;3.83;;
25327;SDS011;13279;51.300;12.394;2023-02-28T07:42:09;6.53;;;3.67;;
25327;SDS011;13279;51.300;12.394;2023-02-28T07:44:38;8.57;;;4.37;;
25327;SDS011;13279;51.300;12.394;2023-02-28T07:47:06;6.57;;;4.33;;
25327;SDS011;13279;51.300;12.394;2023-02-28T07:49:36;7.83;;;3.67;;
25327;SDS011;13279;51.300;12.394;2023-02-28T07:52:04;9.37;;;4.00;;
25327;SDS011;13279;51.300;12.394;2023-02-28T07:54:33;9.13;;;3.97;;
25327;SDS011;13279;51.300;12.394;2023-02-28T07:57:00;10.80;;;4.30;;
25327;SDS011;13279;51.300;12.394;2023-02-28T07:59:28;7.93;;;4.43;;
25327;SDS011;13279;51.300;12.394;2023-02-28T08:01:56;9.20;;;4.20;;
25327;SDS011;13279;51.300;12.394;2023-02-28T08:04:24;8.53;;;4.27;;
25327;SDS011;13279;51.300;12.394;2023-02-28T08:06:55;10.87;;;4.70;;
25327;SDS011;13279;51.300;12.394;2023-02-28T08:09:23;9.93;;;4.27;;
25327;SDS011;13279;51.300;12.394;2023-02-28T08:11:50;13.27;;;4.93;;
25327;SDS011;13279;51.300;12.394;2023-02-28T08:14:18;5.03;;;3.50;;
25327;SDS011;13279;51.300;12.394;2023-02-28T08:16:45;8.10;;;3.97;;
25327;SDS011;13279;51.300;12.394;2023-02-28T08:19:13;6.20;;;4.03;;
25327;SDS011;13279;51.300;12.394;2023-02-28T08:21:40;8.00;;;4.30;;
25327;SDS011;13279;51.300;12.394;2023-02-28T08:24:09;5.00;;;3.53;;
25327;SDS011;13279;51.300;12.394;2023-02-28T08:26:36;5.00;;;3.63;;
25327;SDS011;13279;51.300;12.394;2023-02-28T08:29:06;15.83;;;4.23;;
25327;SDS011;13279;51.300;12.394;2023-02-28T08:31:34;9.70;;;4.33;;
25327;SDS011;13279;51.300;12.394;2023-02-28T08:34:04;6.93;;;3.50;;
25327;SDS011;13279;51.300;12.394;2023-02-28T08:36:32;7.67;;;3.50;;
25327;SDS011;13279;51.300;12.394;2023-02-28T08:38:59;5.03;;;3.57;;
25327;SDS011;13279;51.300;12.394;2023-02-28T08:41:30;8.80;;;3.33;;
25327;SDS011;13279;51.300;12.394;2023-02-28T08:43:57;6.73;;;3.47;;
25327;SDS011;13279;51.300;12.394;2023-02-28T08:46:25;7.20;;;2.77;;
25327;SDS011;13279;51.300;12.394;2023-02-28T08:48:53;7.77;;;3.43;;
25327;SDS011;13279;51.300;12.394;2023-02-28T08:51:25;9.07;;;3.27;;
25327;SDS011;13279;51.300;12.394;2023-02-28T08:53:52;5.27;;;2.97;;
25327;SDS011;13279;51.300;12.394;2023-02-28T08:56:21;6.37;;;3.63;;
25327;SDS011;13279;51.300;12.394;2023-02-28T08:58:50;5.70;;;2.97;;
25327;SDS011;13279;51.300;12.394;2023-02-28T09:01:21;5.60;;;3.47;;
25327;SDS011;13279;51.300;12.394;2023-02-28T09:03:50;6.73;;;3.40;;
25327;SDS011;13279;51.300;12.394;2023-02-28T09:06:18;6.87;;;3.03;;
25327;SDS011;13279;51.300;12.394;2023-02-28T09:08:46;9.57;;;2.77;;
25327;SDS011;13279;51.300;12.394;2023-02-28T09:11:36;9.80;;;3.57;;
25327;SDS011;13279;51.300;12.394;2023-02-28T09:14:06;8.67;;;3.63;;
25327;SDS011;13279;51.300;12.394;2023-02-28T09:16:34;5.87;;;3.67;;
25327;SDS011;13279;51.300;12.394;2023-02-28T09:19:02;5.73;;;3.63;;
25327;SDS011;13279;51.300;12.394;2023-02-28T09:21:29;6.17;;;3.90;;
25327;SDS011;13279;51.300;12.394;2023-02-28T09:23:57;9.90;;;4.60;;
25327;SDS011;13279;51.300;12.394;2023-02-28T09:26:24;5.33;;;3.70;;
25327;SDS011;13279;51.300;12.394;2023-02-28T09:28:53;6.57;;;3.23;;
25327;SDS011;13279;51.300;12.394;2023-02-28T09:31:23;8.93;;;4.20;;
25327;SDS011;13279;51.300;12.394;2023-02-28T09:33:54;7.57;;;3.60;;
25327;SDS011;13279;51.300;12.394;2023-02-28T09:36:23;7.27;;;4.67;;
25327;SDS011;13279;51.300;12.394;2023-02-28T09:38:51;4.73;;;3.63;;
25327;SDS011;13279;51.300;12.394;2023-02-28T09:41:19;6.87;;;4.57;;
25327;SDS011;13279;51.300;12.394;2023-02-28T09:43:49;3.73;;;2.83;;
25327;SDS011;13279;51.300;12.394;2023-02-28T09:46:25;7.23;;;3.70;;
25327;SDS011;13279;51.300;12.394;2023-02-28T09:48:56;6.53;;;3.37;;
25327;SDS011;13279;51.300;12.394;2023-02-28T09:51:29;5.97;;;3.47;;
25327;SDS011;13279;51.300;12.394;2023-02-28T09:54:02;6.77;;;3.20;;
25327;SDS011;13279;51.300;12.394;2023-02-28T09:56:33;5.80;;;3.57;;
25327;SDS011;13279;51.300;12.394;2023-02-28T09:59:09;4.40;;;2.90;;
25327;SDS011;13279;51.300;12.394;2023-02-28T10:01:47;4.43;;;3.30;;
25327;SDS011;13279;51.300;12.394;2023-02-28T10:04:26;8.60;;;3.27;;
25327;SDS011;13279;51.300;12.394;2023-02-28T10:07:10;3.93;;;2.87;;
25327;SDS011;13279;51.300;12.394;2023-02-28T10:09:45;4.60;;;3.20;;
25327;SDS011;13279;51.300;12.394;2023-02-28T10:12:19;3.93;;;2.63;;
25327;SDS011;13279;51.300;12.394;2023-02-28T10:14:47;6.43;;;3.43;;
25327;SDS011;13279;51.300;12.394;2023-02-28T10:17:21;4.37;;;3.47;;
25327;SDS011;13279;51.300;12.394;2023-02-28T10:19:54;4.27;;;3.20;;
25327;SDS011;13279;51.300;12.394;2023-02-28T10:22:27;6.10;;;3.50;;
25327;SDS011;13279;51.300;12.394;2023-02-28T10:25:00;5.60;;;3.23;;
25327;SDS011;13279;51.300;12.394;2023-02-28T10:27:38;4.43;;;3.23;;
25327;SDS011;13279;51.300;12.394;2023-02-28T10:30:05;6.23;;;3.30;;
25327;SDS011;13279;51.300;12.394;2023-02-28T10:32:38;9.13;;;3.97;;
25327;SDS011;13279;51.300;12.394;2023-02-28T10:35:10;8.67;;;3.10;;
25327;SDS011;13279;51.300;12.394;2023-02-28T10:37:44;4.80;;;2.70;;
25327;SDS011;13279;51.300;12.394;2023-02-28T10:40:25;6.40;;;3.70;;
25327;SDS011;13279;51.300;12.394;2023-02-28T10:42:57;4.60;;;3.33;;
25327;SDS011;13279;51.300;12.394;2023-02-28T10:45:26;4.43;;;3.10;;
25327;SDS011;13279;51.300;12.394;2023-02-28T10:47:59;5.60;;;3.87;;
25327;SDS011;13279;51.300;12.394;2023-02-28T10:50:32;5.87;;;3.97;;
25327;SDS011;13279;51.300;12.394;2023-02-28T10:53:06;8.50;;;3.67;;
25327;SDS011;13279;51.300;12.394;2023-02-28T10:55:43;9.00;;;3.70;;
25327;SDS011;13279;51.300;12.394;2023-02-28T10:58:20;4.53;;;3.40;;
25327;SDS011;13279;51.300;12.394;2023-02-28T11:00:49;5.80;;;3.40;;
25327;SDS011;13279;51.300;12.394;2023-02-28T11:03:28;4.03;;;3.50;;
25327;SDS011;13279;51.300;12.394;2023-02-28T11:05:57;5.70;;;3.37;;
25327;SDS011;13279;51.300;12.394;2023-02-28T11:08:31;6.53;;;3.53;;
25327;SDS011;13279;51.300;12.394;2023-02-28T11:10:58;8.73;;;3.77;;
25327;SDS011;13279;51.300;12.394;2023-02-28T11:13:33;5.67;;;3.20;;
25327;SDS011;13279;51.300;12.394;2023-02-28T11:16:03;6.43;;;3.53;;
25327;SDS011;13279;51.300;12.394;2023-02-28T11:18:36;6.27;;;3.37;;
25327;SDS011;13279;51.300;12.394;2023-02-28T11:21:09;7.43;;;3.53;;
25327;SDS011;13279;51.300;12.394;2023-02-28T11:23:43;5.80;;;3.63;;
25327;SDS011;13279;51.300;12.394;2023-02-28T11:26:10;7.83;;;3.80;;
25327;SDS011;13279;51.300;12.394;2023-02-28T11:28:39;6.03;;;3.73;;
25327;SDS011;13279;51.300;12.394;2023-02-28T11:31:16;5.93;;;3.33;;
25327;SDS011;13279;51.300;12.394;2023-02-28T11:33:49;11.37;;;4.10;;
25327;SDS011;13279;51.300;12.394;2023-02-28T11:36:19;4.90;;;3.73;;
25327;SDS011;13279;51.300;12.394;2023-02-28T11:38:50;8.40;;;3.63;;
25327;SDS011;13279;51.300;12.394;2023-02-28T11:41:33;8.60;;;4.03;;
25327;SDS011;13279;51.300;12.394;2023-02-28T11:44:19;7.63;;;3.77;;
25327;SDS011;13279;51.300;12.394;2023-02-28T11:46:56;5.93;;;3.87;;
25327;SDS011;13279;51.300;12.394;2023-02-28T11:49:34;8.87;;;4.20;;
25327;SDS011;13279;51.300;12.394;2023-02-28T11:52:16;7.43;;;4.53;;
25327;SDS011;13279;51.300;12.394;2023-02-28T11:54:54;6.97;;;3.90;;
25327;SDS011;13279;51.300;12.394;2023-02-28T11:57:35;6.03;;;4.00;;
25327;SDS011;13279;51.300;12.394;2023-02-28T12:00:22;8.47;;;4.77;;
25327;SDS011;13279;51.300;12.394;2023-02-28T12:03:04;6.13;;;4.13;;
25327;SDS011;13279;51.300;12.394;2023-02-28T12:05:44;9.27;;;4.37;;
25327;SDS011;13279;51.300;12.394;2023-02-28T12:08:21;10.43;;;5.00;;
25327;SDS011;13279;51.300;12.394;2023-02-28T12:11:02;8.67;;;4.23;;
25327;SDS011;13279;51.300;12.394;2023-02-28T12:13:42;7.50;;;4.60;;
25327;SDS011;13279;51.300;12.394;2023-02-28T12:16:24;9.87;;;3.90;;
25327;SDS011;13279;51.300;12.394;2023-02-28T12:19:06;10.47;;;4.47;;
25327;SDS011;13279;51.300;12.394;2023-02-28T12:21:48;7.03;;;4.47;;
25327;SDS011;13279;51.300;12.394;2023-02-28T12:24:39;6.60;;;4.17;;
25327;SDS011;13279;51.300;12.394;2023-02-28T12:27:18;5.30;;;4.33;;
25327;SDS011;13279;51.300;12.394;2023-02-28T12:29:49;10.27;;;4.77;;
25327;SDS011;13279;51.300;12.394;2023-02-28T12:32:21;6.70;;;4.90;;
25327;SDS011;13279;51.300;12.394;2023-02-28T12:34:55;7.60;;;5.00;;
25327;SDS011;13279;51.300;12.394;2023-02-28T12:37:31;7.20;;;4.33;;
25327;SDS011;13279;51.300;12.394;2023-02-28T12:40:06;7.47;;;4.90;;
25327;SDS011;13279;51.300;12.394;2023-02-28T12:42:39;8.33;;;5.33;;
25327;SDS011;13279;51.300;12.394;2023-02-28T12:45:10;9.57;;;5.07;;
25327;SDS011;13279;51.300;12.394;2023-02-28T12:47:44;11.60;;;5.43;;
25327;SDS011;13279;51.300;12.394;2023-02-28T12:50:15;10.13;;;4.97;;
25327;SDS011;13279;51.300;12.394;2023-02-28T12:52:47;7.83;;;4.80;;
25327;SDS011;13279;51.300;12.394;2023-02-28T12:55:23;11.93;;;5.57;;
25327;SDS011;13279;51.300;12.394;2023-02-28T12:58:01;11.50;;;5.50;;
25327;SDS011;13279;51.300;12.394;2023-02-28T13:00:38;8.97;;;5.40;;
25327;SDS011;13279;51.300;12.394;2023-02-28T13:03:26;7.70;;;5.13;;
25327;SDS011;13279;51.300;12.394;2023-02-28T13:06:21;8.37;;;5.40;;
25327;SDS011;13279;51.300;12.394;2023-02-28T13:09:07;10.03;;;5.80;;
25327;SDS011;13279;51.300;12.394;2023-02-28T13:11:39;10.53;;;5.87;;
25327;SDS011;13279;51.300;12.394;2023-02-28T13:17:03;10.07;;;5.90;;
25327;SDS011;13279;51.300;12.394;2023-02-28T13:19:39;11.90;;;5.37;;
25327;SDS011;13279;51.300;12.394;2023-02-28T13:22:16;16.27;;;5.80;;
25327;SDS011;13279;51.300;12.394;2023-02-28T13:24:48;11.43;;;5.70;;
25327;SDS011;13279;51.300;12.394;2023-02-28T13:30:00;9.27;;;5.57;;
25327;SDS011;13279;51.300;12.394;2023-02-28T13:32:54;9.10;;;5.50;;
25327;SDS011;13279;51.300;12.394;2023-02-28T13:35:51;10.97;;;5.63;;
25327;SDS011;13279;51.300;12.394;2023-02-28T13:38:48;12.30;;;6.00;;
25327;SDS011;13279;51.300;12.394;2023-02-28T13:44:17;7.50;;;5.73;;
25327;SDS011;13279;51.300;12.394;2023-02-28T13:49:50;7.80;;;5.37;;
25327;SDS011;13279;51.300;12.394;2023-02-28T13:52:20;9.80;;;5.67;;
25327;SDS011;13279;51.300;12.394;2023-02-28T13:54:58;7.17;;;5.37;;
25327;SDS011;13279;51.300;12.394;2023-02-28T13:58:00;7.90;;;5.27;;
25327;SDS011;13279;51.300;12.394;2023-02-28T14:00:44;10.33;;;6.10;;
25327;SDS011;13279;51.300;12.394;2023-02-28T14:03:30;13.67;;;6.17;;
25327;SDS011;13279;51.300;12.394;2023-02-28T14:06:15;12.17;;;5.93;;
25327;SDS011;13279;51.300;12.394;2023-02-28T14:08:51;10.50;;;5.63;;
25327;SDS011;13279;51.300;12.394;2023-02-28T14:11:24;11.47;;;5.30;;
25327;SDS011;13279;51.300;12.394;2023-02-28T14:13:55;8.03;;;5.60;;
25327;SDS011;13279;51.300;12.394;2023-02-28T14:16:23;8.57;;;5.43;;
25327;SDS011;13279;51.300;12.394;2023-02-28T14:18:56;10.97;;;5.30;;
25327;SDS011;13279;51.300;12.394;2023-02-28T14:21:27;10.80;;;5.80;;
25327;SDS011;13279;51.300;12.394;2023-02-28T14:26:57;8.73;;;5.57;;
25327;SDS011;13279;51.300;12.394;2023-02-28T14:29:43;10.87;;;6.53;;
25327;SDS011;13279;51.300;12.394;2023-02-28T14:32:40;13.93;;;6.60;;
25327;SDS011;13279;51.300;12.394;2023-02-28T14:35:16;9.70;;;5.73;;
25327;SDS011;13279;51.300;12.394;2023-02-28T14:37:54;9.40;;;5.93;;
25327;SDS011;13279;51.300;12.394;2023-02-28T14:40:23;11.40;;;5.90;;
25327;SDS011;13279;51.300;12.394;2023-02-28T14:42:55;10.67;;;5.90;;
25327;SDS011;13279;51.300;12.394;2023-02-28T14:45:25;10.93;;;6.57;;
25327;SDS011;13279;51.300;12.394;2023-02-28T14:47:55;9.63;;;5.60;;
25327;SDS011;13279;51.300;12.394;2023-02-28T14:50:26;10.80;;;5.83;;
25327;SDS011;13279;51.300;12.394;2023-02-28T14:52:56;10.73;;;6.50;;
25327;SDS011;13279;51.300;12.394;2023-02-28T14:55:26;10.33;;;5.77;;
25327;SDS011;13279;51.300;12.394;2023-02-28T14:57:57;9.50;;;5.63;;
25327;SDS011;13279;51.300;12.394;2023-02-28T15:00:30;12.23;;;6.80;;
25327;SDS011;13279;51.300;12.394;2023-02-28T15:02:59;12.00;;;6.10;;
25327;SDS011;13279;51.300;12.394;2023-02-28T15:05:47;8.57;;;6.00;;
25327;SDS011;13279;51.300;12.394;2023-02-28T15:08:19;11.30;;;5.80;;
25327;SDS011;13279;51.300;12.394;2023-02-28T15:10:50;14.50;;;6.00;;
25327;SDS011;13279;51.300;12.394;2023-02-28T15:13:20;10.47;;;5.47;;
25327;SDS011;13279;51.300;12.394;2023-02-28T15:15:51;10.77;;;6.50;;
25327;SDS011;13279;51.300;12.394;2023-02-28T15:18:23;8.63;;;5.60;;
25327;SDS011;13279;51.300;12.394;2023-02-28T15:20:58;9.43;;;5.70;;
25327;SDS011;13279;51.300;12.394;2023-02-28T15:23:29;9.83;;;5.63;;